Sealand Michigan — 9HA3390 — position and weather

sailwx.info

Track history (hours):
 
Tides and Currents Weather Stations Pressure Air Temp Water Temp Dewpoint Dewpoint Depression Visibility Wind Speed Wind Dir Waves Ship Positions

Sealand Michigan

Last reported at 2017-Dec-14 06:51 UTC. Time now 2017-Dec-17 04:19 UTC.
Position N 34°53' W 026°41'.

Length 303 m; draft 13 m.

Type: Cargo ship. MMSI: 229538000.

Date/timePositionNaut miles runAvg speedWind from/ knotsBaromVisibWave heightAir tempDewpointWater temp
2017-Dec-14 06:51N 34°53' W 026°41'819.1
2017-Dec-14 06:27N 34°54' W 026°31'918.9
2017-Dec-14 05:58N 34°56' W 026°21'1118.8
2017-Dec-14 05:25N 34°57' W 026°08'819.0
2017-Dec-14 05:00N 34°59' W 025°59'1119.2
2017-Dec-14 04:27N 35°01' W 025°46'1119.1
2017-Dec-14 03:52N 35°04' W 025°33'719.4
2017-Dec-14 03:30N 35°05' W 025°25'1019.1
2017-Dec-14 03:00N 35°07' W 025°13'1019.3
2017-Dec-14 02:31N 35°09' W 025°02'1119.7
2017-Dec-14 01:57N 35°12' W 024°49'919.4
2017-Dec-14 01:30N 35°14' W 024°38'1019.7
2017-Dec-14 01:00N 35°16' W 024°26'1019.6
2017-Dec-14 00:30N 35°18' W 024°15'2519.3
2017-Dec-13 23:14N 35°23' W 023°45'1019.2
2017-Dec-13 22:42N 35°25' W 023°33'418.5
2017-Dec-13 22:30N 35°26' W 023°29'1618.8
2017-Dec-13 21:39N 35°29' W 023°09'319.0
2017-Dec-13 21:30N 35°30' W 023°06'2218.9
2017-Dec-13 20:21N 35°34' W 022°40'64018.8
2017-Dec-12 10:17N 37°46' W 009°39'518.6
2017-Dec-12 10:01N 37°47' W 009°33'918.4
2017-Dec-12 09:30N 37°49' W 009°22'918.3
2017-Dec-12 09:01N 37°51' W 009°10'918.3
2017-Dec-12 08:31N 37°53' W 008°59'714.3
2017-Dec-12 08:00N 37°55' W 008°50'1 1.7
2017-Dec-12 07:28N 37°56' W 008°51'0 0.0
2017-Dec-12 06:58N 37°56' W 008°51'0 0.0
2017-Dec-12 06:28N 37°56' W 008°51'0 0.0
2017-Dec-12 05:58N 37°56' W 008°51'0 0.0
2017-Dec-12 05:28N 37°56' W 008°51'0 0.0
2017-Dec-12 04:55N 37°56' W 008°51'0 0.0
2017-Dec-12 04:28N 37°56' W 008°51'0 0.0
2017-Dec-12 03:58N 37°56' W 008°51'0 0.0
2017-Dec-12 03:28N 37°56' W 008°51'0 0.0
2017-Dec-12 02:58N 37°56' W 008°51'0 0.0
2017-Dec-12 02:28N 37°56' W 008°51'0 0.0
2017-Dec-12 01:58N 37°56' W 008°51'0 0.0
2017-Dec-12 01:28N 37°56' W 008°51'0 0.0
2017-Dec-12 00:58N 37°56' W 008°51'0 0.0
2017-Dec-12 00:28N 37°56' W 008°51'0 0.0
2017-Dec-11 23:55N 37°56' W 008°51'0 0.0
2017-Dec-11 23:28N 37°56' W 008°51'0 0.0
2017-Dec-11 22:58N 37°56' W 008°51'0 0.0
2017-Dec-11 22:28N 37°56' W 008°51'0 0.0
2017-Dec-11 21:58N 37°56' W 008°51'0 0.0
2017-Dec-11 21:28N 37°56' W 008°51'0 0.0
2017-Dec-11 20:58N 37°56' W 008°51'0 0.0
2017-Dec-11 20:28N 37°56' W 008°51'0 0.0
2017-Dec-11 19:59N 37°56' W 008°51'1 1.2
2017-Dec-11 19:30N 37°55' W 008°50'2 4.5
2017-Dec-11 19:01N 37°53' W 008°51'2 4.4
2017-Dec-11 18:31N 37°51' W 008°52'2 4.3
2017-Dec-11 18:00N 37°50' W 008°54'2 5.0
2017-Dec-11 17:31N 37°47' W 008°55'2 3.7
2017-Dec-11 17:00N 37°46' W 008°53'1 2.4
2017-Dec-11 16:30N 37°47' W 008°55'1 2.1
2017-Dec-11 16:00N 37°47' W 008°56'1 1.4
2017-Dec-11 15:30N 37°48' W 008°56'1 2.7
2017-Dec-11 15:01N 37°48' W 008°55'1 1.8
2017-Dec-11 14:30N 37°48' W 008°56'1 1.8
2017-Dec-11 14:00N 37°49' W 008°57'2 4.3
2017-Dec-11 13:30N 37°47' W 008°57'4 8.2
2017-Dec-11 13:01N 37°42' W 008°58'5 9.7
2017-Dec-11 12:30N 37°39' W 009°01'4 9.0
2017-Dec-11 12:00N 37°34' W 009°03'5 9.0
2017-Dec-11 11:30N 37°30' W 009°05'5 9.3
2017-Dec-11 11:01N 37°26' W 009°08'5 9.2
2017-Dec-11 10:30N 37°22' W 009°11'46 9.9
2017-Dec-11 05:52N 36°39' W 008°52'4513.9
2017-Dec-11 02:36N 36°24' W 007°59'215.3
2017-Dec-11 02:27N 36°23' W 007°56'342 9.8
2017-Dec-09 15:34N 37°20' W 000°55'118.0
2017-Dec-09 15:29N 37°20' W 000°53'917.9
2017-Dec-09 15:00N 37°26' W 000°45'917.7
2017-Dec-09 14:30N 37°33' W 000°37'917.8
2017-Dec-09 14:00N 37°39' W 000°29'918.3
2017-Dec-09 13:30N 37°46' W 000°23'1118.1
2017-Dec-09 12:55N 37°56' W 000°16'718.0
2017-Dec-09 12:30N 38°02' W 000°11'443 9.4
2017-Dec-07 13:29N 42°48' E 007°13'1718.8
2017-Dec-07 12:36N 42°56' E 007°32'219.0
2017-Dec-07 12:30N 42°57' E 007°35'4718.7
2017-Dec-07 09:59N 43°23' E 008°29'918.6
2017-Dec-07 09:30N 43°27' E 008°40'918.6
2017-Dec-07 09:00N 43°32' E 008°50'918.6
2017-Dec-07 08:30N 43°38' E 009°01'918.4
2017-Dec-07 08:00N 43°42' E 009°12'918.4
2017-Dec-07 07:30N 43°47' E 009°23'918.7
2017-Dec-07 07:00N 43°52' E 009°34'1018.5
2017-Dec-07 06:28N 43°58' E 009°45'714.5
2017-Dec-07 06:00N 44°02' E 009°52'4 8.8
2017-Dec-07 05:31N 44°06' E 009°51'0 0.1
2017-Dec-07 04:59N 44°06' E 009°51'0 0.0
2017-Dec-07 04:20N 44°06' E 009°51'0 0.0
2017-Dec-07 03:59N 44°06' E 009°51'0 0.0
2017-Dec-07 03:29N 44°06' E 009°51'0 0.0
2017-Dec-07 02:59N 44°06' E 009°51'0 0.0
2017-Dec-07 02:29N 44°06' E 009°51'0 0.0
2017-Dec-07 01:59N 44°06' E 009°51'0 0.0
2017-Dec-07 01:29N 44°06' E 009°51'0 0.0
2017-Dec-07 00:59N 44°06' E 009°51'0 0.0
2017-Dec-07 00:26N 44°06' E 009°51'0 0.0
2017-Dec-06 23:59N 44°06' E 009°51'0 0.0
2017-Dec-06 23:29N 44°06' E 009°51'0 0.0
2017-Dec-06 22:59N 44°06' E 009°51'0 0.0
2017-Dec-06 22:29N 44°06' E 009°51'0 0.0
2017-Dec-06 21:59N 44°06' E 009°51'0 0.0
2017-Dec-06 21:26N 44°06' E 009°51'0 0.0
2017-Dec-06 20:59N 44°06' E 009°51'  
2017-Dec-04 09:58N 40°50' E 014°17'0 0.0
2017-Dec-04 09:28N 40°50' E 014°17'0 0.0
2017-Dec-04 08:58N 40°50' E 014°17'0 0.0
2017-Dec-04 08:28N 40°50' E 014°17'0 0.0
2017-Dec-04 07:58N 40°50' E 014°17'0 0.0
2017-Dec-04 07:28N 40°50' E 014°17'  
Track history (hours):
 
Tides and Currents Weather Stations Pressure Air Temp Water Temp Dewpoint Dewpoint Depression Visibility Wind Speed Wind Dir Waves Ship Positions

Sealand Michigan

Last reported at 2017-Dec-14 06:51 UTC. Time now 2017-Dec-17 04:19 UTC.
Position N 34°53' W 026°41'.

Length 303 m; draft 13 m.

Type: Cargo ship. MMSI: 229538000.

Date/timePositionNaut miles runAvg speedWind from/ knotsBaromVisibWave heightAir tempDewpointWater temp
2017-Dec-14 06:51N 34°53' W 026°41'819.1
2017-Dec-14 06:27N 34°54' W 026°31'918.9
2017-Dec-14 05:58N 34°56' W 026°21'1118.8
2017-Dec-14 05:25N 34°57' W 026°08'819.0
2017-Dec-14 05:00N 34°59' W 025°59'1119.2
2017-Dec-14 04:27N 35°01' W 025°46'1119.1
2017-Dec-14 03:52N 35°04' W 025°33'719.4
2017-Dec-14 03:30N 35°05' W 025°25'1019.1
2017-Dec-14 03:00N 35°07' W 025°13'1019.3
2017-Dec-14 02:31N 35°09' W 025°02'1119.7
2017-Dec-14 01:57N 35°12' W 024°49'919.4
2017-Dec-14 01:30N 35°14' W 024°38'1019.7
2017-Dec-14 01:00N 35°16' W 024°26'1019.6
2017-Dec-14 00:30N 35°18' W 024°15'2519.3
2017-Dec-13 23:14N 35°23' W 023°45'1019.2
2017-Dec-13 22:42N 35°25' W 023°33'418.5
2017-Dec-13 22:30N 35°26' W 023°29'1618.8
2017-Dec-13 21:39N 35°29' W 023°09'319.0
2017-Dec-13 21:30N 35°30' W 023°06'2218.9
2017-Dec-13 20:21N 35°34' W 022°40'64018.8
2017-Dec-12 10:17N 37°46' W 009°39'518.6
2017-Dec-12 10:01N 37°47' W 009°33'918.4
2017-Dec-12 09:30N 37°49' W 009°22'918.3
2017-Dec-12 09:01N 37°51' W 009°10'918.3
2017-Dec-12 08:31N 37°53' W 008°59'714.3
2017-Dec-12 08:00N 37°55' W 008°50'1 1.7
2017-Dec-12 07:28N 37°56' W 008°51'0 0.0
2017-Dec-12 06:58N 37°56' W 008°51'0 0.0
2017-Dec-12 06:28N 37°56' W 008°51'0 0.0
2017-Dec-12 05:58N 37°56' W 008°51'0 0.0
2017-Dec-12 05:28N 37°56' W 008°51'0 0.0
2017-Dec-12 04:55N 37°56' W 008°51'0 0.0
2017-Dec-12 04:28N 37°56' W 008°51'0 0.0
2017-Dec-12 03:58N 37°56' W 008°51'0 0.0
2017-Dec-12 03:28N 37°56' W 008°51'0 0.0
2017-Dec-12 02:58N 37°56' W 008°51'0 0.0
2017-Dec-12 02:28N 37°56' W 008°51'0 0.0
2017-Dec-12 01:58N 37°56' W 008°51'0 0.0
2017-Dec-12 01:28N 37°56' W 008°51'0 0.0
2017-Dec-12 00:58N 37°56' W 008°51'0 0.0
2017-Dec-12 00:28N 37°56' W 008°51'0 0.0
2017-Dec-11 23:55N 37°56' W 008°51'0 0.0
2017-Dec-11 23:28N 37°56' W 008°51'0 0.0
2017-Dec-11 22:58N 37°56' W 008°51'0 0.0
2017-Dec-11 22:28N 37°56' W 008°51'0 0.0
2017-Dec-11 21:58N 37°56' W 008°51'0 0.0
2017-Dec-11 21:28N 37°56' W 008°51'0 0.0
2017-Dec-11 20:58N 37°56' W 008°51'0 0.0
2017-Dec-11 20:28N 37°56' W 008°51'0 0.0
2017-Dec-11 19:59N 37°56' W 008°51'1 1.2
2017-Dec-11 19:30N 37°55' W 008°50'2 4.5
2017-Dec-11 19:01N 37°53' W 008°51'2 4.4
2017-Dec-11 18:31N 37°51' W 008°52'2 4.3
2017-Dec-11 18:00N 37°50' W 008°54'2 5.0
2017-Dec-11 17:31N 37°47' W 008°55'2 3.7
2017-Dec-11 17:00N 37°46' W 008°53'1 2.4
2017-Dec-11 16:30N 37°47' W 008°55'1 2.1
2017-Dec-11 16:00N 37°47' W 008°56'1 1.4
2017-Dec-11 15:30N 37°48' W 008°56'1 2.7
2017-Dec-11 15:01N 37°48' W 008°55'1 1.8
2017-Dec-11 14:30N 37°48' W 008°56'1 1.8
2017-Dec-11 14:00N 37°49' W 008°57'2 4.3
2017-Dec-11 13:30N 37°47' W 008°57'4 8.2
2017-Dec-11 13:01N 37°42' W 008°58'5 9.7
2017-Dec-11 12:30N 37°39' W 009°01'4 9.0
2017-Dec-11 12:00N 37°34' W 009°03'5 9.0
2017-Dec-11 11:30N 37°30' W 009°05'5 9.3
2017-Dec-11 11:01N 37°26' W 009°08'5 9.2
2017-Dec-11 10:30N 37°22' W 009°11'46 9.9
2017-Dec-11 05:52N 36°39' W 008°52'4513.9
2017-Dec-11 02:36N 36°24' W 007°59'215.3
2017-Dec-11 02:27N 36°23' W 007°56'342 9.8
2017-Dec-09 15:34N 37°20' W 000°55'118.0
2017-Dec-09 15:29N 37°20' W 000°53'917.9
2017-Dec-09 15:00N 37°26' W 000°45'917.7
2017-Dec-09 14:30N 37°33' W 000°37'917.8
2017-Dec-09 14:00N 37°39' W 000°29'918.3
2017-Dec-09 13:30N 37°46' W 000°23'1118.1
2017-Dec-09 12:55N 37°56' W 000°16'718.0
2017-Dec-09 12:30N 38°02' W 000°11'443 9.4
2017-Dec-07 13:29N 42°48' E 007°13'1718.8
2017-Dec-07 12:36N 42°56' E 007°32'219.0
2017-Dec-07 12:30N 42°57' E 007°35'4718.7
2017-Dec-07 09:59N 43°23' E 008°29'918.6
2017-Dec-07 09:30N 43°27' E 008°40'918.6
2017-Dec-07 09:00N 43°32' E 008°50'918.6
2017-Dec-07 08:30N 43°38' E 009°01'918.4
2017-Dec-07 08:00N 43°42' E 009°12'918.4
2017-Dec-07 07:30N 43°47' E 009°23'918.7
2017-Dec-07 07:00N 43°52' E 009°34'1018.5
2017-Dec-07 06:28N 43°58' E 009°45'714.5
2017-Dec-07 06:00N 44°02' E 009°52'4 8.8
2017-Dec-07 05:31N 44°06' E 009°51'0 0.1
2017-Dec-07 04:59N 44°06' E 009°51'0 0.0
2017-Dec-07 04:20N 44°06' E 009°51'0 0.0
2017-Dec-07 03:59N 44°06' E 009°51'0 0.0
2017-Dec-07 03:29N 44°06' E 009°51'0 0.0
2017-Dec-07 02:59N 44°06' E 009°51'0 0.0
2017-Dec-07 02:29N 44°06' E 009°51'0 0.0
2017-Dec-07 01:59N 44°06' E 009°51'0 0.0
2017-Dec-07 01:29N 44°06' E 009°51'0 0.0
2017-Dec-07 00:59N 44°06' E 009°51'0 0.0
2017-Dec-07 00:26N 44°06' E 009°51'0 0.0
2017-Dec-06 23:59N 44°06' E 009°51'0 0.0
2017-Dec-06 23:29N 44°06' E 009°51'0 0.0
2017-Dec-06 22:59N 44°06' E 009°51'0 0.0
2017-Dec-06 22:29N 44°06' E 009°51'0 0.0
2017-Dec-06 21:59N 44°06' E 009°51'0 0.0
2017-Dec-06 21:26N 44°06' E 009°51'0 0.0
2017-Dec-06 20:59N 44°06' E 009°51'  
2017-Dec-04 09:58N 40°50' E 014°17'0 0.0
2017-Dec-04 09:28N 40°50' E 014°17'0 0.0
2017-Dec-04 08:58N 40°50' E 014°17'0 0.0
2017-Dec-04 08:28N 40°50' E 014°17'0 0.0
2017-Dec-04 07:58N 40°50' E 014°17'0 0.0
2017-Dec-04 07:28N 40°50' E 014°17'  

Dump ship's entire track history